sensor_id;sensor_type;location;lat;lon;timestamp;temperature;humidity
20442;DHT22;10380;52.102;20.614;2022-10-30T00:00:40;13.70;99.90
20442;DHT22;10380;52.102;20.614;2022-10-30T00:03:14;13.70;99.90
20442;DHT22;10380;52.102;20.614;2022-10-30T00:05:42;13.70;99.90
20442;DHT22;10380;52.102;20.614;2022-10-30T00:08:15;13.70;99.90
20442;DHT22;10380;52.102;20.614;2022-10-30T00:10:44;13.70;99.90
20442;DHT22;10380;52.102;20.614;2022-10-30T00:13:12;13.70;99.90
20442;DHT22;10380;52.102;20.614;2022-10-30T00:15:46;13.70;99.90
20442;DHT22;10380;52.102;20.614;2022-10-30T00:18:13;13.70;99.90
20442;DHT22;10380;52.102;20.614;2022-10-30T00:20:40;13.70;99.90
20442;DHT22;10380;52.102;20.614;2022-10-30T00:23:07;13.70;99.90
20442;DHT22;10380;52.102;20.614;2022-10-30T00:25:35;13.70;99.90
20442;DHT22;10380;52.102;20.614;2022-10-30T00:28:06;13.70;99.90
20442;DHT22;10380;52.102;20.614;2022-10-30T00:30:34;13.70;99.90
20442;DHT22;10380;52.102;20.614;2022-10-30T00:33:02;13.70;99.90
20442;DHT22;10380;52.102;20.614;2022-10-30T00:35:30;13.70;99.90
20442;DHT22;10380;52.102;20.614;2022-10-30T00:37:58;13.60;99.90
20442;DHT22;10380;52.102;20.614;2022-10-30T00:40:25;13.60;99.90
20442;DHT22;10380;52.102;20.614;2022-10-30T00:42:52;13.60;99.90
20442;DHT22;10380;52.102;20.614;2022-10-30T00:45:20;13.60;99.90
20442;DHT22;10380;52.102;20.614;2022-10-30T00:47:59;13.60;99.90
20442;DHT22;10380;52.102;20.614;2022-10-30T00:50:32;13.60;99.90
20442;DHT22;10380;52.102;20.614;2022-10-30T00:53:08;13.60;99.90
20442;DHT22;10380;52.102;20.614;2022-10-30T00:55:42;13.60;99.90
20442;DHT22;10380;52.102;20.614;2022-10-30T00:58:14;13.60;99.90
20442;DHT22;10380;52.102;20.614;2022-10-30T01:00:46;13.60;99.90
20442;DHT22;10380;52.102;20.614;2022-10-30T01:03:15;13.60;99.90
20442;DHT22;10380;52.102;20.614;2022-10-30T01:05:46;13.60;99.90
20442;DHT22;10380;52.102;20.614;2022-10-30T01:08:13;13.60;99.90
20442;DHT22;10380;52.102;20.614;2022-10-30T01:10:41;13.60;99.90
20442;DHT22;10380;52.102;20.614;2022-10-30T01:13:08;13.60;99.90
20442;DHT22;10380;52.102;20.614;2022-10-30T01:15:45;13.60;99.90
20442;DHT22;10380;52.102;20.614;2022-10-30T01:18:34;13.60;99.90
20442;DHT22;10380;52.102;20.614;2022-10-30T01:21:29;13.60;99.90
20442;DHT22;10380;52.102;20.614;2022-10-30T01:26:40;13.60;99.90
20442;DHT22;10380;52.102;20.614;2022-10-30T01:32:07;13.60;99.90
20442;DHT22;10380;52.102;20.614;2022-10-30T01:35:13;13.60;99.90
20442;DHT22;10380;52.102;20.614;2022-10-30T01:40:28;13.60;99.90
20442;DHT22;10380;52.102;20.614;2022-10-30T01:42:56;13.60;99.90
20442;DHT22;10380;52.102;20.614;2022-10-30T01:48:48;13.60;99.90
20442;DHT22;10380;52.102;20.614;2022-10-30T02:02:14;13.60;99.90
20442;DHT22;10380;52.102;20.614;2022-10-30T02:04:42;13.60;99.90
20442;DHT22;10380;52.102;20.614;2022-10-30T02:07:10;13.60;99.90
20442;DHT22;10380;52.102;20.614;2022-10-30T02:09:38;13.60;99.90
20442;DHT22;10380;52.102;20.614;2022-10-30T02:12:06;13.50;99.90
20442;DHT22;10380;52.102;20.614;2022-10-30T02:14:40;13.60;99.90
20442;DHT22;10380;52.102;20.614;2022-10-30T02:17:09;13.60;99.90
20442;DHT22;10380;52.102;20.614;2022-10-30T02:19:37;13.60;99.90
20442;DHT22;10380;52.102;20.614;2022-10-30T02:22:04;13.60;99.90
20442;DHT22;10380;52.102;20.614;2022-10-30T02:24:31;13.60;99.90
20442;DHT22;10380;52.102;20.614;2022-10-30T02:26:58;13.60;99.90
20442;DHT22;10380;52.102;20.614;2022-10-30T02:29:26;13.60;99.90
20442;DHT22;10380;52.102;20.614;2022-10-30T02:31:53;13.60;99.90
20442;DHT22;10380;52.102;20.614;2022-10-30T02:34:20;13.60;99.90
20442;DHT22;10380;52.102;20.614;2022-10-30T02:36:47;13.60;99.90
20442;DHT22;10380;52.102;20.614;2022-10-30T02:39:13;13.60;99.90
20442;DHT22;10380;52.102;20.614;2022-10-30T02:41:41;13.60;99.90
20442;DHT22;10380;52.102;20.614;2022-10-30T02:44:07;13.60;99.90
20442;DHT22;10380;52.102;20.614;2022-10-30T02:46:34;13.60;99.90
20442;DHT22;10380;52.102;20.614;2022-10-30T02:49:01;13.60;99.90
20442;DHT22;10380;52.102;20.614;2022-10-30T02:51:30;13.60;99.90
20442;DHT22;10380;52.102;20.614;2022-10-30T02:53:58;13.60;99.90
20442;DHT22;10380;52.102;20.614;2022-10-30T02:56:25;13.60;99.90
20442;DHT22;10380;52.102;20.614;2022-10-30T02:58:54;13.50;99.90
20442;DHT22;10380;52.102;20.614;2022-10-30T03:01:21;13.50;99.90
20442;DHT22;10380;52.102;20.614;2022-10-30T03:03:48;13.50;99.90
20442;DHT22;10380;52.102;20.614;2022-10-30T03:06:17;13.50;99.90
20442;DHT22;10380;52.102;20.614;2022-10-30T03:08:44;13.50;99.90
20442;DHT22;10380;52.102;20.614;2022-10-30T03:11:14;13.50;99.90
20442;DHT22;10380;52.102;20.614;2022-10-30T03:13:42;13.50;99.90
20442;DHT22;10380;52.102;20.614;2022-10-30T03:16:15;13.50;99.90
20442;DHT22;10380;52.102;20.614;2022-10-30T03:18:42;13.50;99.90
20442;DHT22;10380;52.102;20.614;2022-10-30T03:21:12;13.50;99.90
20442;DHT22;10380;52.102;20.614;2022-10-30T03:23:39;13.50;99.90
20442;DHT22;10380;52.102;20.614;2022-10-30T03:26:06;13.40;99.90
20442;DHT22;10380;52.102;20.614;2022-10-30T03:28:34;13.40;99.90
20442;DHT22;10380;52.102;20.614;2022-10-30T03:31:03;13.40;99.90
20442;DHT22;10380;52.102;20.614;2022-10-30T03:33:31;13.40;99.90
20442;DHT22;10380;52.102;20.614;2022-10-30T03:35:58;13.50;99.90
20442;DHT22;10380;52.102;20.614;2022-10-30T03:38:25;13.50;99.90
20442;DHT22;10380;52.102;20.614;2022-10-30T03:40:52;13.40;99.90
20442;DHT22;10380;52.102;20.614;2022-10-30T03:43:19;13.40;99.90
20442;DHT22;10380;52.102;20.614;2022-10-30T03:45:51;13.40;99.90
20442;DHT22;10380;52.102;20.614;2022-10-30T03:48:19;13.40;99.90
20442;DHT22;10380;52.102;20.614;2022-10-30T03:50:47;13.40;99.90
20442;DHT22;10380;52.102;20.614;2022-10-30T03:53:14;13.40;99.90
20442;DHT22;10380;52.102;20.614;2022-10-30T03:55:41;13.40;99.90
20442;DHT22;10380;52.102;20.614;2022-10-30T03:58:09;13.40;99.90
20442;DHT22;10380;52.102;20.614;2022-10-30T04:00:36;13.40;99.90
20442;DHT22;10380;52.102;20.614;2022-10-30T04:03:06;13.40;99.90
20442;DHT22;10380;52.102;20.614;2022-10-30T04:05:34;13.40;99.90
20442;DHT22;10380;52.102;20.614;2022-10-30T04:08:04;13.40;99.90
20442;DHT22;10380;52.102;20.614;2022-10-30T04:10:33;13.40;99.90
20442;DHT22;10380;52.102;20.614;2022-10-30T04:13:03;13.40;99.90
20442;DHT22;10380;52.102;20.614;2022-10-30T04:15:30;13.40;99.90
20442;DHT22;10380;52.102;20.614;2022-10-30T04:17:57;13.40;99.90
20442;DHT22;10380;52.102;20.614;2022-10-30T04:20:26;13.40;99.90
20442;DHT22;10380;52.102;20.614;2022-10-30T04:22:58;13.40;99.90
20442;DHT22;10380;52.102;20.614;2022-10-30T04:25:25;13.30;99.90
20442;DHT22;10380;52.102;20.614;2022-10-30T04:27:53;13.30;99.90
20442;DHT22;10380;52.102;20.614;2022-10-30T04:30:21;13.30;99.90
20442;DHT22;10380;52.102;20.614;2022-10-30T04:32:49;13.30;99.90
20442;DHT22;10380;52.102;20.614;2022-10-30T04:35:17;13.30;99.90
20442;DHT22;10380;52.102;20.614;2022-10-30T04:37:58;13.30;99.90
20442;DHT22;10380;52.102;20.614;2022-10-30T04:40:31;13.30;99.90
20442;DHT22;10380;52.102;20.614;2022-10-30T04:42:58;13.30;99.90
20442;DHT22;10380;52.102;20.614;2022-10-30T04:45:26;13.20;99.90
20442;DHT22;10380;52.102;20.614;2022-10-30T04:48:03;13.20;99.90
20442;DHT22;10380;52.102;20.614;2022-10-30T04:50:31;13.20;99.90
20442;DHT22;10380;52.102;20.614;2022-10-30T04:53:04;13.20;99.90
20442;DHT22;10380;52.102;20.614;2022-10-30T04:55:33;13.10;99.90
20442;DHT22;10380;52.102;20.614;2022-10-30T04:58:01;13.10;99.90
20442;DHT22;10380;52.102;20.614;2022-10-30T05:00:30;13.10;99.90
20442;DHT22;10380;52.102;20.614;2022-10-30T05:02:58;13.10;99.90
20442;DHT22;10380;52.102;20.614;2022-10-30T05:05:27;13.00;99.90
20442;DHT22;10380;52.102;20.614;2022-10-30T05:07:54;12.90;99.90
20442;DHT22;10380;52.102;20.614;2022-10-30T05:10:23;12.90;99.90
20442;DHT22;10380;52.102;20.614;2022-10-30T05:12:52;12.90;99.90
20442;DHT22;10380;52.102;20.614;2022-10-30T05:15:20;12.90;99.90
20442;DHT22;10380;52.102;20.614;2022-10-30T05:17:50;12.90;99.90
20442;DHT22;10380;52.102;20.614;2022-10-30T05:20:18;12.80;99.90
20442;DHT22;10380;52.102;20.614;2022-10-30T05:22:52;12.80;99.90
20442;DHT22;10380;52.102;20.614;2022-10-30T05:25:19;12.80;99.90
20442;DHT22;10380;52.102;20.614;2022-10-30T05:27:46;12.80;99.90
20442;DHT22;10380;52.102;20.614;2022-10-30T05:30:13;12.90;99.90
20442;DHT22;10380;52.102;20.614;2022-10-30T05:32:40;12.90;99.90
20442;DHT22;10380;52.102;20.614;2022-10-30T05:35:07;12.90;99.90
20442;DHT22;10380;52.102;20.614;2022-10-30T05:37:34;12.90;99.90
20442;DHT22;10380;52.102;20.614;2022-10-30T05:40:01;13.00;99.90
20442;DHT22;10380;52.102;20.614;2022-10-30T05:42:28;13.00;99.90
20442;DHT22;10380;52.102;20.614;2022-10-30T05:44:55;13.00;99.90
20442;DHT22;10380;52.102;20.614;2022-10-30T05:47:27;13.00;99.90
20442;DHT22;10380;52.102;20.614;2022-10-30T05:49:54;13.00;99.90
20442;DHT22;10380;52.102;20.614;2022-10-30T05:52:21;13.00;99.90
20442;DHT22;10380;52.102;20.614;2022-10-30T05:54:47;13.00;99.90
20442;DHT22;10380;52.102;20.614;2022-10-30T05:57:14;13.10;99.90
20442;DHT22;10380;52.102;20.614;2022-10-30T05:59:41;13.10;99.90
20442;DHT22;10380;52.102;20.614;2022-10-30T06:02:08;13.10;99.90
20442;DHT22;10380;52.102;20.614;2022-10-30T06:04:35;13.10;99.90
20442;DHT22;10380;52.102;20.614;2022-10-30T06:07:01;13.10;99.90
20442;DHT22;10380;52.102;20.614;2022-10-30T06:09:28;13.10;99.90
20442;DHT22;10380;52.102;20.614;2022-10-30T06:11:55;13.10;99.90
20442;DHT22;10380;52.102;20.614;2022-10-30T06:14:22;13.10;99.90
20442;DHT22;10380;52.102;20.614;2022-10-30T06:16:49;13.20;99.90
20442;DHT22;10380;52.102;20.614;2022-10-30T06:19:15;13.20;99.90
20442;DHT22;10380;52.102;20.614;2022-10-30T06:21:45;13.20;99.90
20442;DHT22;10380;52.102;20.614;2022-10-30T06:24:12;13.20;99.90
20442;DHT22;10380;52.102;20.614;2022-10-30T06:26:40;13.20;99.90
20442;DHT22;10380;52.102;20.614;2022-10-30T06:29:06;13.20;99.90
20442;DHT22;10380;52.102;20.614;2022-10-30T06:31:33;13.30;99.90
20442;DHT22;10380;52.102;20.614;2022-10-30T06:34:00;13.30;99.90
20442;DHT22;10380;52.102;20.614;2022-10-30T06:36:27;13.30;99.90
20442;DHT22;10380;52.102;20.614;2022-10-30T06:38:54;13.40;99.90
20442;DHT22;10380;52.102;20.614;2022-10-30T06:41:20;13.40;99.90
20442;DHT22;10380;52.102;20.614;2022-10-30T06:43:55;13.40;99.90
20442;DHT22;10380;52.102;20.614;2022-10-30T06:46:22;13.40;99.90
20442;DHT22;10380;52.102;20.614;2022-10-30T06:48:56;13.40;99.90
20442;DHT22;10380;52.102;20.614;2022-10-30T06:51:23;13.40;99.90
20442;DHT22;10380;52.102;20.614;2022-10-30T06:53:50;13.50;99.90
20442;DHT22;10380;52.102;20.614;2022-10-30T06:56:17;13.50;99.90
20442;DHT22;10380;52.102;20.614;2022-10-30T06:58:43;13.50;99.90
20442;DHT22;10380;52.102;20.614;2022-10-30T07:01:10;13.60;99.90
20442;DHT22;10380;52.102;20.614;2022-10-30T07:03:37;13.60;99.90
20442;DHT22;10380;52.102;20.614;2022-10-30T07:06:04;13.70;99.90
20442;DHT22;10380;52.102;20.614;2022-10-30T07:08:31;13.70;99.90
20442;DHT22;10380;52.102;20.614;2022-10-30T07:10:58;13.80;99.90
20442;DHT22;10380;52.102;20.614;2022-10-30T07:13:25;13.80;99.90
20442;DHT22;10380;52.102;20.614;2022-10-30T07:15:51;13.90;99.90
20442;DHT22;10380;52.102;20.614;2022-10-30T07:18:18;13.90;99.90
20442;DHT22;10380;52.102;20.614;2022-10-30T07:20:45;13.90;99.90
20442;DHT22;10380;52.102;20.614;2022-10-30T07:23:12;13.90;99.90
20442;DHT22;10380;52.102;20.614;2022-10-30T07:25:39;13.90;99.90
20442;DHT22;10380;52.102;20.614;2022-10-30T07:28:05;13.90;99.90
20442;DHT22;10380;52.102;20.614;2022-10-30T07:30:32;13.90;99.90
20442;DHT22;10380;52.102;20.614;2022-10-30T07:33:01;13.90;99.90
20442;DHT22;10380;52.102;20.614;2022-10-30T07:35:29;13.90;99.90
20442;DHT22;10380;52.102;20.614;2022-10-30T07:38:08;13.80;99.90
20442;DHT22;10380;52.102;20.614;2022-10-30T07:40:35;13.80;99.90
20442;DHT22;10380;52.102;20.614;2022-10-30T07:43:03;13.80;99.90
20442;DHT22;10380;52.102;20.614;2022-10-30T07:45:31;13.80;99.90
20442;DHT22;10380;52.102;20.614;2022-10-30T07:47:58;13.90;99.90
20442;DHT22;10380;52.102;20.614;2022-10-30T07:50:25;13.90;99.90
20442;DHT22;10380;52.102;20.614;2022-10-30T07:52:53;14.00;99.90
20442;DHT22;10380;52.102;20.614;2022-10-30T07:55:19;14.00;99.90
20442;DHT22;10380;52.102;20.614;2022-10-30T07:57:46;14.00;99.90
20442;DHT22;10380;52.102;20.614;2022-10-30T08:00:14;14.10;99.90
20442;DHT22;10380;52.102;20.614;2022-10-30T08:02:41;14.10;99.90
20442;DHT22;10380;52.102;20.614;2022-10-30T08:05:09;14.20;99.90
20442;DHT22;10380;52.102;20.614;2022-10-30T08:10:12;14.30;99.90
20442;DHT22;10380;52.102;20.614;2022-10-30T08:12:38;14.40;99.90
20442;DHT22;10380;52.102;20.614;2022-10-30T08:15:07;14.50;99.90
20442;DHT22;10380;52.102;20.614;2022-10-30T08:17:41;14.60;99.90
20442;DHT22;10380;52.102;20.614;2022-10-30T08:20:09;14.60;99.90
20442;DHT22;10380;52.102;20.614;2022-10-30T08:22:49;14.70;99.90
20442;DHT22;10380;52.102;20.614;2022-10-30T08:25:18;14.70;99.90
20442;DHT22;10380;52.102;20.614;2022-10-30T08:28:00;14.80;99.90
20442;DHT22;10380;52.102;20.614;2022-10-30T08:30:31;14.90;99.90
20442;DHT22;10380;52.102;20.614;2022-10-30T08:33:02;14.90;99.90
20442;DHT22;10380;52.102;20.614;2022-10-30T08:35:29;15.00;99.90
20442;DHT22;10380;52.102;20.614;2022-10-30T08:37:59;15.00;99.90
20442;DHT22;10380;52.102;20.614;2022-10-30T08:40:26;15.10;99.90
20442;DHT22;10380;52.102;20.614;2022-10-30T08:42:54;15.10;99.90
20442;DHT22;10380;52.102;20.614;2022-10-30T08:45:23;15.10;99.90
20442;DHT22;10380;52.102;20.614;2022-10-30T08:47:58;15.20;99.90
20442;DHT22;10380;52.102;20.614;2022-10-30T08:50:26;15.20;99.90
20442;DHT22;10380;52.102;20.614;2022-10-30T08:52:52;15.30;99.90
20442;DHT22;10380;52.102;20.614;2022-10-30T08:55:20;15.40;99.90
20442;DHT22;10380;52.102;20.614;2022-10-30T08:57:47;15.50;99.90
20442;DHT22;10380;52.102;20.614;2022-10-30T09:00:14;15.50;99.90
20442;DHT22;10380;52.102;20.614;2022-10-30T09:02:41;15.50;99.90
20442;DHT22;10380;52.102;20.614;2022-10-30T09:05:08;15.50;99.90
20442;DHT22;10380;52.102;20.614;2022-10-30T09:07:35;15.60;99.90
20442;DHT22;10380;52.102;20.614;2022-10-30T09:10:02;15.60;99.90
20442;DHT22;10380;52.102;20.614;2022-10-30T09:12:30;15.70;99.90
20442;DHT22;10380;52.102;20.614;2022-10-30T09:14:56;15.70;99.90
20442;DHT22;10380;52.102;20.614;2022-10-30T09:17:23;15.70;99.90
20442;DHT22;10380;52.102;20.614;2022-10-30T09:19:50;15.80;99.90
20442;DHT22;10380;52.102;20.614;2022-10-30T09:22:17;15.80;99.90
20442;DHT22;10380;52.102;20.614;2022-10-30T09:24:43;15.90;99.90
20442;DHT22;10380;52.102;20.614;2022-10-30T09:27:10;15.90;99.90
20442;DHT22;10380;52.102;20.614;2022-10-30T09:29:37;15.90;99.90
20442;DHT22;10380;52.102;20.614;2022-10-30T09:32:05;15.90;99.90
20442;DHT22;10380;52.102;20.614;2022-10-30T09:34:36;15.90;99.90
20442;DHT22;10380;52.102;20.614;2022-10-30T09:37:03;16.00;99.90
20442;DHT22;10380;52.102;20.614;2022-10-30T09:39:30;16.00;99.90
20442;DHT22;10380;52.102;20.614;2022-10-30T09:42:15;16.00;99.90
20442;DHT22;10380;52.102;20.614;2022-10-30T09:50:18;15.90;99.90
20442;DHT22;10380;52.102;20.614;2022-10-30T09:56:17;15.80;99.90
20442;DHT22;10380;52.102;20.614;2022-10-30T10:07:20;15.80;99.90
20442;DHT22;10380;52.102;20.614;2022-10-30T10:09:51;15.70;99.90
20442;DHT22;10380;52.102;20.614;2022-10-30T10:12:54;15.80;99.90
20442;DHT22;10380;52.102;20.614;2022-10-30T10:15:48;15.80;99.90
20442;DHT22;10380;52.102;20.614;2022-10-30T10:18:32;15.70;99.90
20442;DHT22;10380;52.102;20.614;2022-10-30T10:21:12;15.70;99.90
20442;DHT22;10380;52.102;20.614;2022-10-30T10:23:47;15.70;99.90
20442;DHT22;10380;52.102;20.614;2022-10-30T10:26:45;15.70;99.90
20442;DHT22;10380;52.102;20.614;2022-10-30T10:29:22;15.80;99.90
20442;DHT22;10380;52.102;20.614;2022-10-30T10:32:07;15.80;99.90
20442;DHT22;10380;52.102;20.614;2022-10-30T10:38:17;15.70;99.90
20442;DHT22;10380;52.102;20.614;2022-10-30T10:44:00;15.60;99.90
20442;DHT22;10380;52.102;20.614;2022-10-30T10:52:32;15.60;99.90
20442;DHT22;10380;52.102;20.614;2022-10-30T10:55:04;15.50;99.90
20442;DHT22;10380;52.102;20.614;2022-10-30T10:57:37;15.60;99.90
20442;DHT22;10380;52.102;20.614;2022-10-30T11:00:23;15.50;99.90
20442;DHT22;10380;52.102;20.614;2022-10-30T11:03:14;15.60;99.90
20442;DHT22;10380;52.102;20.614;2022-10-30T11:09:13;15.60;99.90
20442;DHT22;10380;52.102;20.614;2022-10-30T11:11:41;15.50;99.90
20442;DHT22;10380;52.102;20.614;2022-10-30T11:14:20;15.50;99.90
20442;DHT22;10380;52.102;20.614;2022-10-30T11:17:12;15.50;99.90
20442;DHT22;10380;52.102;20.614;2022-10-30T11:19:41;15.60;99.90
20442;DHT22;10380;52.102;20.614;2022-10-30T11:22:32;15.50;99.90
20442;DHT22;10380;52.102;20.614;2022-10-30T11:27:56;15.50;99.90
20442;DHT22;10380;52.102;20.614;2022-10-30T11:30:25;15.50;99.90
20442;DHT22;10380;52.102;20.614;2022-10-30T11:32:55;15.50;99.90
20442;DHT22;10380;52.102;20.614;2022-10-30T11:35:23;15.50;99.90
20442;DHT22;10380;52.102;20.614;2022-10-30T11:38:15;15.50;99.90
20442;DHT22;10380;52.102;20.614;2022-10-30T11:40:46;15.50;99.90
20442;DHT22;10380;52.102;20.614;2022-10-30T11:43:17;15.50;99.90
20442;DHT22;10380;52.102;20.614;2022-10-30T11:45:45;15.50;99.90
20442;DHT22;10380;52.102;20.614;2022-10-30T11:48:27;15.50;99.90
20442;DHT22;10380;52.102;20.614;2022-10-30T11:51:00;15.50;99.90
20442;DHT22;10380;52.102;20.614;2022-10-30T11:53:31;15.60;99.90
20442;DHT22;10380;52.102;20.614;2022-10-30T11:56:01;15.70;99.90
20442;DHT22;10380;52.102;20.614;2022-10-30T11:58:34;15.80;99.90
20442;DHT22;10380;52.102;20.614;2022-10-30T12:03:39;15.90;99.90
20442;DHT22;10380;52.102;20.614;2022-10-30T12:06:27;16.00;99.90
20442;DHT22;10380;52.102;20.614;2022-10-30T12:09:09;16.10;99.90
20442;DHT22;10380;52.102;20.614;2022-10-30T12:11:37;16.20;99.90
20442;DHT22;10380;52.102;20.614;2022-10-30T12:14:05;16.30;99.90
20442;DHT22;10380;52.102;20.614;2022-10-30T12:16:32;16.50;99.90
20442;DHT22;10380;52.102;20.614;2022-10-30T12:19:04;16.50;99.90
20442;DHT22;10380;52.102;20.614;2022-10-30T12:21:42;16.60;99.90
20442;DHT22;10380;52.102;20.614;2022-10-30T12:24:28;16.70;99.90
20442;DHT22;10380;52.102;20.614;2022-10-30T12:26:59;16.80;99.90
20442;DHT22;10380;52.102;20.614;2022-10-30T12:29:46;16.70;99.90
20442;DHT22;10380;52.102;20.614;2022-10-30T12:33:05;16.70;99.90
20442;DHT22;10380;52.102;20.614;2022-10-30T12:35:50;16.60;99.90
20442;DHT22;10380;52.102;20.614;2022-10-30T12:38:45;16.50;99.90
20442;DHT22;10380;52.102;20.614;2022-10-30T12:41:26;16.40;99.90
20442;DHT22;10380;52.102;20.614;2022-10-30T12:43:56;16.30;99.90
20442;DHT22;10380;52.102;20.614;2022-10-30T12:51:59;16.30;99.90
20442;DHT22;10380;52.102;20.614;2022-10-30T12:54:49;16.30;99.90
20442;DHT22;10380;52.102;20.614;2022-10-30T13:05:37;16.50;99.90
20442;DHT22;10380;52.102;20.614;2022-10-30T13:08:33;16.50;99.90
20442;DHT22;10380;52.102;20.614;2022-10-30T13:13:43;16.60;99.90
20442;DHT22;10380;52.102;20.614;2022-10-30T13:16:24;16.50;99.90
20442;DHT22;10380;52.102;20.614;2022-10-30T13:18:55;16.50;99.90
20442;DHT22;10380;52.102;20.614;2022-10-30T13:22:07;16.50;99.90
20442;DHT22;10380;52.102;20.614;2022-10-30T13:27:33;16.40;99.90
20442;DHT22;10380;52.102;20.614;2022-10-30T13:30:05;16.40;99.90
20442;DHT22;10380;52.102;20.614;2022-10-30T13:35:36;16.30;99.90
20442;DHT22;10380;52.102;20.614;2022-10-30T13:38:26;16.20;99.90
20442;DHT22;10380;52.102;20.614;2022-10-30T13:49:23;16.30;99.90
20442;DHT22;10380;52.102;20.614;2022-10-30T13:51:54;16.40;99.90
20442;DHT22;10380;52.102;20.614;2022-10-30T13:54:39;16.40;99.90
20442;DHT22;10380;52.102;20.614;2022-10-30T13:57:29;16.50;99.90
20442;DHT22;10380;52.102;20.614;2022-10-30T14:07:47;16.50;99.90
20442;DHT22;10380;52.102;20.614;2022-10-30T14:15:44;16.30;99.90
20442;DHT22;10380;52.102;20.614;2022-10-30T14:20:47;16.30;99.90
20442;DHT22;10380;52.102;20.614;2022-10-30T14:28:34;16.20;99.90
20442;DHT22;10380;52.102;20.614;2022-10-30T14:31:18;16.20;99.90
20442;DHT22;10380;52.102;20.614;2022-10-30T14:44:48;16.00;99.90
20442;DHT22;10380;52.102;20.614;2022-10-30T14:53:30;15.70;99.90
20442;DHT22;10380;52.102;20.614;2022-10-30T14:58:40;15.60;99.90
20442;DHT22;10380;52.102;20.614;2022-10-30T15:04:16;15.50;99.90
20442;DHT22;10380;52.102;20.614;2022-10-30T15:07:20;15.50;99.90
20442;DHT22;10380;52.102;20.614;2022-10-30T15:09:56;15.40;99.90
20442;DHT22;10380;52.102;20.614;2022-10-30T15:12:33;15.30;99.90
20442;DHT22;10380;52.102;20.614;2022-10-30T15:15:08;15.30;99.90
20442;DHT22;10380;52.102;20.614;2022-10-30T15:17:39;15.10;99.90
20442;DHT22;10380;52.102;20.614;2022-10-30T15:20:22;15.10;99.90
20442;DHT22;10380;52.102;20.614;2022-10-30T15:22:55;15.00;99.90
20442;DHT22;10380;52.102;20.614;2022-10-30T15:25:26;14.90;99.90
20442;DHT22;10380;52.102;20.614;2022-10-30T15:27:56;14.90;99.90
20442;DHT22;10380;52.102;20.614;2022-10-30T15:30:25;14.90;99.90
20442;DHT22;10380;52.102;20.614;2022-10-30T15:32:53;14.90;99.90
20442;DHT22;10380;52.102;20.614;2022-10-30T15:35:22;14.80;99.90
20442;DHT22;10380;52.102;20.614;2022-10-30T15:38:08;14.80;99.90
20442;DHT22;10380;52.102;20.614;2022-10-30T15:40:36;14.70;99.90
20442;DHT22;10380;52.102;20.614;2022-10-30T15:43:06;14.70;99.90
20442;DHT22;10380;52.102;20.614;2022-10-30T15:45:39;14.60;99.90
20442;DHT22;10380;52.102;20.614;2022-10-30T15:50:33;14.60;99.90
20442;DHT22;10380;52.102;20.614;2022-10-30T15:53:01;14.50;99.90
20442;DHT22;10380;52.102;20.614;2022-10-30T15:55:30;14.50;99.90
20442;DHT22;10380;52.102;20.614;2022-10-30T15:58:01;14.50;99.90
20442;DHT22;10380;52.102;20.614;2022-10-30T16:00:33;14.40;99.90
20442;DHT22;10380;52.102;20.614;2022-10-30T16:03:15;14.40;99.90
20442;DHT22;10380;52.102;20.614;2022-10-30T16:05:42;14.30;99.90
20442;DHT22;10380;52.102;20.614;2022-10-30T16:08:21;14.30;99.90
20442;DHT22;10380;52.102;20.614;2022-10-30T16:10:51;14.30;99.90
20442;DHT22;10380;52.102;20.614;2022-10-30T16:13:22;14.20;99.90
20442;DHT22;10380;52.102;20.614;2022-10-30T16:15:50;14.10;99.90
20442;DHT22;10380;52.102;20.614;2022-10-30T16:18:21;14.10;99.90
20442;DHT22;10380;52.102;20.614;2022-10-30T16:20:54;14.00;99.90
20442;DHT22;10380;52.102;20.614;2022-10-30T16:23:22;14.00;99.90
20442;DHT22;10380;52.102;20.614;2022-10-30T16:25:54;13.90;99.90
20442;DHT22;10380;52.102;20.614;2022-10-30T16:28:30;13.90;99.90
20442;DHT22;10380;52.102;20.614;2022-10-30T16:31:02;13.80;99.90
20442;DHT22;10380;52.102;20.614;2022-10-30T16:33:32;13.80;99.90
20442;DHT22;10380;52.102;20.614;2022-10-30T16:35:59;13.70;99.90
20442;DHT22;10380;52.102;20.614;2022-10-30T16:38:35;13.70;99.90
20442;DHT22;10380;52.102;20.614;2022-10-30T16:41:07;13.60;99.90
20442;DHT22;10380;52.102;20.614;2022-10-30T16:43:43;13.60;99.90
20442;DHT22;10380;52.102;20.614;2022-10-30T16:46:33;13.50;99.90
20442;DHT22;10380;52.102;20.614;2022-10-30T16:49:06;13.50;99.90
20442;DHT22;10380;52.102;20.614;2022-10-30T16:51:33;13.50;99.90
20442;DHT22;10380;52.102;20.614;2022-10-30T16:54:03;13.40;99.90
20442;DHT22;10380;52.102;20.614;2022-10-30T16:56:31;13.40;99.90
20442;DHT22;10380;52.102;20.614;2022-10-30T16:59:07;13.40;99.90
20442;DHT22;10380;52.102;20.614;2022-10-30T17:01:39;13.30;99.90
20442;DHT22;10380;52.102;20.614;2022-10-30T17:04:06;13.30;99.90
20442;DHT22;10380;52.102;20.614;2022-10-30T17:06:41;13.30;99.90
20442;DHT22;10380;52.102;20.614;2022-10-30T17:09:26;13.20;99.90
20442;DHT22;10380;52.102;20.614;2022-10-30T17:12:19;13.20;99.90
20442;DHT22;10380;52.102;20.614;2022-10-30T17:17:39;13.10;99.90
20442;DHT22;10380;52.102;20.614;2022-10-30T17:22:51;12.90;99.90
20442;DHT22;10380;52.102;20.614;2022-10-30T17:25:37;12.90;99.90
20442;DHT22;10380;52.102;20.614;2022-10-30T17:28:04;12.90;99.90
20442;DHT22;10380;52.102;20.614;2022-10-30T17:30:39;12.80;99.90
20442;DHT22;10380;52.102;20.614;2022-10-30T17:33:34;12.80;99.90
20442;DHT22;10380;52.102;20.614;2022-10-30T17:36:05;12.80;99.90
20442;DHT22;10380;52.102;20.614;2022-10-30T17:38:32;12.70;99.90
20442;DHT22;10380;52.102;20.614;2022-10-30T17:40:59;12.70;99.90
20442;DHT22;10380;52.102;20.614;2022-10-30T17:43:32;12.70;99.90
20442;DHT22;10380;52.102;20.614;2022-10-30T17:45:59;12.70;99.90
20442;DHT22;10380;52.102;20.614;2022-10-30T17:48:27;12.60;99.90
20442;DHT22;10380;52.102;20.614;2022-10-30T17:50:55;12.60;99.90
20442;DHT22;10380;52.102;20.614;2022-10-30T17:53:23;12.60;99.90
20442;DHT22;10380;52.102;20.614;2022-10-30T17:58:41;12.50;99.90
20442;DHT22;10380;52.102;20.614;2022-10-30T18:01:12;12.40;99.90
20442;DHT22;10380;52.102;20.614;2022-10-30T18:03:41;12.40;99.90
20442;DHT22;10380;52.102;20.614;2022-10-30T18:06:15;12.30;99.90
20442;DHT22;10380;52.102;20.614;2022-10-30T18:08:43;12.30;99.90
20442;DHT22;10380;52.102;20.614;2022-10-30T18:11:17;12.30;99.90